createdAt,value
2022-08-25T00:02:02.010Z,19.53
2022-08-25T00:04:53.937Z,19.54
2022-08-25T00:07:41.357Z,19.56
2022-08-25T00:10:29.580Z,19.50
2022-08-25T00:13:16.935Z,19.49
2022-08-25T00:16:04.672Z,19.45
2022-08-25T00:18:57.027Z,19.47
2022-08-25T00:21:45.318Z,19.49
2022-08-25T00:24:33.700Z,19.47
2022-08-25T00:27:21.217Z,19.42
2022-08-25T00:30:08.744Z,19.37
2022-08-25T00:32:57.691Z,19.33
2022-08-25T00:35:45.364Z,19.31
2022-08-25T00:38:32.356Z,19.30
2022-08-25T00:41:22.627Z,19.28
2022-08-25T00:44:13.134Z,19.23
2022-08-25T00:47:02.183Z,19.17
2022-08-25T00:49:54.307Z,19.15
2022-08-25T00:52:48.356Z,19.16
2022-08-25T00:55:39.544Z,19.24
2022-08-25T00:58:31.601Z,19.25
2022-08-25T01:02:07.921Z,19.23
2022-08-25T01:04:58.549Z,19.20
2022-08-25T01:07:46.575Z,19.21
2022-08-25T01:10:38.430Z,19.19
2022-08-25T01:13:42.029Z,19.12
2022-08-25T01:16:29.490Z,19.06
2022-08-25T01:19:17.160Z,19.04
2022-08-25T01:22:06.543Z,19.03
2022-08-25T01:25:02.049Z,19.02
2022-08-25T01:27:49.382Z,18.93
2022-08-25T01:30:36.673Z,18.96
2022-08-25T01:33:24.327Z,19.02
2022-08-25T01:36:11.219Z,19.03
2022-08-25T01:38:58.807Z,18.97
2022-08-25T01:42:06.879Z,18.88
2022-08-25T01:44:54.775Z,18.78
2022-08-25T01:47:41.658Z,18.74
2022-08-25T01:50:29.094Z,18.72
2022-08-25T01:53:23.653Z,18.75
2022-08-25T01:56:12.952Z,18.75
2022-08-25T01:59:00.613Z,18.73
2022-08-25T02:01:48.262Z,18.68
2022-08-25T02:04:35.879Z,18.60
2022-08-25T02:07:27.005Z,18.55
2022-08-25T02:10:14.365Z,18.54
2022-08-25T02:13:02.079Z,18.53
2022-08-25T02:15:52.149Z,18.47
2022-08-25T02:18:44.743Z,18.44
2022-08-25T02:21:32.722Z,18.46
2022-08-25T02:24:19.655Z,18.49
2022-08-25T02:27:06.967Z,18.52
2022-08-25T02:29:53.729Z,18.50
2022-08-25T02:32:41.403Z,18.45
2022-08-25T02:35:29.756Z,18.42
2022-08-25T02:38:17.227Z,18.41
2022-08-25T02:41:12.843Z,18.40
2022-08-25T02:44:02.210Z,18.40
2022-08-25T02:46:49.576Z,18.38
2022-08-25T02:49:37.367Z,18.41
2022-08-25T02:52:25.387Z,18.43
2022-08-25T02:55:17.525Z,18.40
2022-08-25T02:58:06.995Z,18.36
2022-08-25T03:00:57.070Z,18.38
2022-08-25T03:03:47.008Z,18.40
2022-08-25T03:06:34.098Z,18.39
2022-08-25T03:09:21.091Z,18.38
2022-08-25T03:12:13.729Z,18.35
2022-08-25T03:15:04.596Z,18.35
2022-08-25T03:17:56.579Z,18.33
2022-08-25T03:20:47.336Z,18.29
2022-08-25T03:23:35.166Z,18.24
2022-08-25T03:26:41.263Z,18.25
2022-08-25T03:29:33.713Z,18.26
2022-08-25T03:32:20.714Z,18.28
2022-08-25T03:35:09.203Z,18.31
2022-08-25T03:37:59.944Z,18.33
2022-08-25T03:40:47.125Z,18.34
2022-08-25T03:43:34.306Z,18.32
2022-08-25T03:46:27.167Z,18.30
2022-08-25T03:49:20.818Z,18.29
2022-08-25T03:52:08.306Z,18.32
2022-08-25T03:54:55.525Z,18.34
2022-08-25T03:57:42.738Z,18.34
2022-08-25T04:00:29.930Z,18.34
2022-08-25T04:03:18.479Z,18.41
2022-08-25T04:06:07.229Z,18.43
2022-08-25T04:08:54.593Z,18.41
2022-08-25T04:11:42.675Z,18.43
2022-08-25T04:14:29.989Z,18.49
2022-08-25T04:17:17.599Z,18.55
2022-08-25T04:20:06.636Z,18.57
2022-08-25T04:22:53.812Z,18.60
2022-08-25T04:25:42.640Z,18.61
2022-08-25T04:28:33.491Z,18.62
2022-08-25T04:31:25.004Z,18.68
2022-08-25T04:34:14.800Z,18.76
2022-08-25T04:37:18.018Z,18.84
2022-08-25T04:40:06.478Z,18.89
2022-08-25T04:42:53.669Z,19.01
2022-08-25T04:45:40.825Z,19.13
2022-08-25T04:48:28.273Z,19.22
2022-08-25T04:51:19.648Z,19.34
2022-08-25T04:54:11.851Z,19.45
2022-08-25T04:56:59.100Z,19.58
2022-08-25T04:59:45.827Z,19.68
2022-08-25T05:02:32.928Z,19.78
2022-08-25T05:05:20.046Z,19.88
2022-08-25T05:08:07.346Z,19.96
2022-08-25T05:10:56.768Z,20.03
2022-08-25T05:13:51.565Z,20.11
2022-08-25T05:16:39.559Z,20.18
2022-08-25T05:19:27.060Z,20.24
2022-08-25T05:22:14.772Z,20.30
2022-08-25T05:25:01.990Z,20.35
2022-08-25T05:27:49.526Z,20.39
2022-08-25T05:30:40.334Z,20.42
2022-08-25T05:33:27.527Z,20.48
2022-08-25T05:36:20.863Z,20.53
2022-08-25T05:39:07.937Z,20.62
2022-08-25T05:41:54.947Z,20.72
2022-08-25T05:44:42.549Z,20.81
2022-08-25T05:47:29.463Z,20.89
2022-08-25T05:50:17.333Z,21.01
2022-08-25T05:53:04.163Z,21.19
2022-08-25T05:55:52.444Z,21.33
2022-08-25T05:58:40.030Z,21.55
2022-08-25T06:01:48.190Z,21.94
2022-08-25T06:04:39.569Z,22.24
2022-08-25T06:07:28.345Z,22.66
2022-08-25T06:10:16.479Z,23.11
2022-08-25T06:13:04.601Z,23.51
2022-08-25T06:16:00.996Z,23.80
2022-08-25T06:18:48.503Z,23.94
2022-08-25T06:21:39.336Z,24.21
2022-08-25T06:24:27.845Z,24.49
2022-08-25T06:27:15.004Z,24.78
2022-08-25T06:30:07.946Z,25.09
2022-08-25T06:32:55.516Z,-66.71
2022-08-25T06:35:44.112Z,-128.00
2022-08-25T06:38:31.691Z,-5.35
2022-08-25T06:41:18.510Z,25.25
2022-08-25T06:44:06.156Z,25.22
2022-08-25T06:46:54.141Z,-66.75
2022-08-25T06:49:42.805Z,-128.00
2022-08-25T06:52:30.334Z,-128.00
2022-08-25T06:55:19.732Z,-128.00
2022-08-25T06:58:07.617Z,-128.00
2022-08-25T07:01:09.030Z,-128.00
2022-08-25T07:04:07.648Z,-128.00
2022-08-25T07:06:57.507Z,-128.00
2022-08-25T07:09:44.610Z,-128.00
2022-08-25T07:12:31.961Z,-128.00
2022-08-25T07:15:20.853Z,-128.00
2022-08-25T07:18:08.914Z,-128.00
2022-08-25T07:20:57.064Z,-128.00
2022-08-25T07:23:45.724Z,-128.00
2022-08-25T07:26:38.266Z,-128.00
2022-08-25T07:29:32.408Z,-128.00
2022-08-25T07:32:20.232Z,-128.00
2022-08-25T07:35:19.136Z,-128.00
2022-08-25T07:38:10.125Z,-128.00
2022-08-25T07:41:04.061Z,-128.00
2022-08-25T07:43:51.180Z,-128.00
2022-08-25T07:46:38.698Z,-128.00
2022-08-25T07:49:27.090Z,-128.00
2022-08-25T07:52:23.418Z,-128.00
2022-08-25T07:55:11.340Z,-128.00
2022-08-25T07:57:59.911Z,-128.00
2022-08-25T08:00:48.622Z,-128.00
2022-08-25T08:03:50.324Z,-128.00
2022-08-25T08:06:39.488Z,-128.00
2022-08-25T08:09:26.489Z,-128.00
2022-08-25T08:12:13.546Z,-128.00
2022-08-25T08:15:02.663Z,-128.00
2022-08-25T08:17:50.394Z,-128.00
2022-08-25T08:20:42.984Z,-128.00
2022-08-25T08:23:30.724Z,-128.00
2022-08-25T08:26:19.306Z,-128.00
2022-08-25T08:29:06.353Z,-128.00
2022-08-25T08:31:53.469Z,-128.00
2022-08-25T08:34:41.889Z,-128.00
2022-08-25T08:37:31.680Z,-97.38
2022-08-25T08:40:22.688Z,32.33
2022-08-25T08:43:18.917Z,32.50
2022-08-25T08:46:06.268Z,32.69
2022-08-25T08:49:02.027Z,32.87
2022-08-25T08:51:58.027Z,33.09
2022-08-25T08:54:50.419Z,33.34
2022-08-25T08:57:45.365Z,33.58
2022-08-25T09:00:37.689Z,33.82
2022-08-25T09:03:42.014Z,34.03
2022-08-25T09:06:41.353Z,34.14
2022-08-25T09:09:35.804Z,34.37
2022-08-25T09:12:38.146Z,34.63
2022-08-25T09:16:01.372Z,34.88
2022-08-25T09:19:08.456Z,35.08
2022-08-25T09:22:35.102Z,35.15
2022-08-25T09:25:53.468Z,35.13
2022-08-25T09:28:51.355Z,35.21
2022-08-25T09:31:41.335Z,35.39
2022-08-25T09:34:33.387Z,35.62
2022-08-25T09:37:21.352Z,35.68
2022-08-25T09:40:08.665Z,35.81
2022-08-25T09:43:01.290Z,35.99
2022-08-25T09:45:57.953Z,36.17
2022-08-25T09:48:56.005Z,36.29
2022-08-25T09:51:44.818Z,36.43
2022-08-25T09:54:46.813Z,36.59
2022-08-25T09:57:44.305Z,36.60
2022-08-25T10:00:36.783Z,36.65
2022-08-25T10:03:25.038Z,36.66
2022-08-25T10:06:15.319Z,36.80
2022-08-25T10:09:06.833Z,36.87
2022-08-25T10:11:57.464Z,36.98
2022-08-25T10:14:48.493Z,37.12
2022-08-25T10:17:38.743Z,37.25
2022-08-25T10:20:28.669Z,37.34
2022-08-25T10:23:28.040Z,37.36
2022-08-25T10:26:34.893Z,37.45
2022-08-25T10:29:54.974Z,37.64
2022-08-25T10:33:00.744Z,37.78
2022-08-25T10:36:09.506Z,37.70
2022-08-25T10:39:03.725Z,37.75
2022-08-25T10:42:06.743Z,37.78
2022-08-25T10:45:25.242Z,37.92
2022-08-25T10:48:23.472Z,38.02
2022-08-25T10:51:35.742Z,38.07
2022-08-25T10:54:48.869Z,38.18
2022-08-25T10:57:52.837Z,38.09
2022-08-25T11:01:10.723Z,38.15
2022-08-25T11:04:03.414Z,38.24
2022-08-25T11:07:05.875Z,38.25
2022-08-25T11:10:03.432Z,38.11
2022-08-25T11:12:57.502Z,38.13
2022-08-25T11:16:16.483Z,38.17
2022-08-25T11:19:20.873Z,38.29
2022-08-25T11:22:34.550Z,38.41
2022-08-25T11:25:37.714Z,38.45
2022-08-25T11:28:35.599Z,38.48
2022-08-25T11:31:23.764Z,38.48
2022-08-25T11:34:15.437Z,38.37
2022-08-25T11:37:20.874Z,38.42
2022-08-25T11:40:21.966Z,38.50
2022-08-25T11:43:35.907Z,38.57
2022-08-25T11:46:32.167Z,38.52
2022-08-25T11:49:39.394Z,38.53
2022-08-25T11:52:51.985Z,38.59
2022-08-25T11:55:52.637Z,38.68
2022-08-25T11:58:51.797Z,38.70
2022-08-25T12:01:48.790Z,38.68
2022-08-25T12:04:44.140Z,38.72
2022-08-25T12:08:13.604Z,38.77
2022-08-25T12:11:11.107Z,38.78
2022-08-25T12:14:19.103Z,38.93
2022-08-25T12:17:20.825Z,38.91
2022-08-25T12:20:08.595Z,38.79
2022-08-25T12:23:00.178Z,38.74
2022-08-25T12:25:54.014Z,38.70
2022-08-25T12:29:12.309Z,38.65
2022-08-25T12:32:04.802Z,38.65
2022-08-25T12:35:12.520Z,38.70
2022-08-25T12:38:16.892Z,38.62
2022-08-25T12:41:11.812Z,38.54
2022-08-25T12:44:40.192Z,38.55
2022-08-25T12:47:34.535Z,38.52
2022-08-25T12:50:50.214Z,38.47
2022-08-25T12:53:49.463Z,38.41
2022-08-25T12:57:03.088Z,38.44
2022-08-25T12:59:57.407Z,38.39
2022-08-25T13:03:23.488Z,38.43
2022-08-25T13:06:18.619Z,38.41
2022-08-25T13:10:02.135Z,38.35
2022-08-25T13:13:14.676Z,38.33
2022-08-25T13:16:07.231Z,38.16
2022-08-25T13:18:59.147Z,38.06
2022-08-25T13:21:50.087Z,38.16
2022-08-25T13:24:47.514Z,38.14
2022-08-25T13:27:37.168Z,38.24
2022-08-25T13:30:39.334Z,38.23
2022-08-25T13:33:28.209Z,38.26
2022-08-25T13:36:36.185Z,38.32
2022-08-25T13:39:45.724Z,38.35
2022-08-25T13:42:36.832Z,38.13
2022-08-25T13:45:29.997Z,37.99
2022-08-25T13:48:49.451Z,38.02
2022-08-25T13:51:43.689Z,38.13
2022-08-25T13:54:39.152Z,38.10
2022-08-25T13:57:34.682Z,38.01
2022-08-25T14:00:49.593Z,37.88
2022-08-25T14:03:46.166Z,37.76
2022-08-25T14:06:36.895Z,37.76
2022-08-25T14:09:28.407Z,37.68
2022-08-25T14:12:45.561Z,37.64
2022-08-25T14:15:34.024Z,37.57
2022-08-25T14:18:30.920Z,37.52
2022-08-25T14:21:26.061Z,37.48
2022-08-25T14:24:24.338Z,37.39
2022-08-25T14:27:12.001Z,37.37
2022-08-25T14:30:01.611Z,37.37
2022-08-25T14:32:50.991Z,37.27
2022-08-25T14:35:38.628Z,37.15
2022-08-25T14:38:29.124Z,37.01
2022-08-25T14:41:16.988Z,36.89
2022-08-25T14:44:08.854Z,36.85
2022-08-25T14:47:01.203Z,36.75
2022-08-25T14:49:51.187Z,36.64
2022-08-25T14:52:42.407Z,36.59
2022-08-25T14:55:32.475Z,36.52
2022-08-25T14:58:25.980Z,36.50
2022-08-25T15:01:16.900Z,36.35
2022-08-25T15:04:09.103Z,36.16
2022-08-25T15:07:20.329Z,36.03
2022-08-25T15:10:08.417Z,36.00
2022-08-25T15:12:55.930Z,35.98
2022-08-25T15:15:52.743Z,35.92
2022-08-25T15:18:40.557Z,35.80
2022-08-25T15:21:32.197Z,35.73
2022-08-25T15:24:20.885Z,35.63
2022-08-25T15:27:10.255Z,35.58
2022-08-25T15:29:58.256Z,35.48
2022-08-25T15:32:48.475Z,35.33
2022-08-25T15:35:46.332Z,35.20
2022-08-25T15:38:37.488Z,35.09
2022-08-25T15:41:27.727Z,35.01
2022-08-25T15:44:28.608Z,34.85
2022-08-25T15:47:17.271Z,34.65
2022-08-25T15:50:14.776Z,34.39
2022-08-25T15:53:02.610Z,34.24
2022-08-25T15:55:57.676Z,34.14
2022-08-25T15:58:53.065Z,33.98
2022-08-25T16:01:41.590Z,33.88
2022-08-25T16:04:29.747Z,33.78
2022-08-25T16:07:20.713Z,33.62
2022-08-25T16:10:13.345Z,33.40
2022-08-25T16:13:03.343Z,33.14
2022-08-25T16:15:52.889Z,32.88
2022-08-25T16:18:44.732Z,32.61
2022-08-25T16:21:36.008Z,32.27
2022-08-25T16:24:32.371Z,31.95
2022-08-25T16:27:28.635Z,31.66
2022-08-25T16:30:28.583Z,31.44
2022-08-25T16:33:17.257Z,31.14
2022-08-25T16:36:18.115Z,30.87
2022-08-25T16:39:09.934Z,30.52
2022-08-25T16:42:00.119Z,30.23
2022-08-25T16:44:49.954Z,29.98
2022-08-25T16:47:42.742Z,29.73
2022-08-25T16:50:35.085Z,29.47
2022-08-25T16:53:44.845Z,29.29
2022-08-25T16:56:40.735Z,29.07
2022-08-25T16:59:28.512Z,28.85
2022-08-25T17:02:15.660Z,28.62
2022-08-25T17:05:06.509Z,28.45
2022-08-25T17:08:12.134Z,28.23
2022-08-25T17:11:14.950Z,28.03
2022-08-25T17:14:11.063Z,27.85
2022-08-25T17:16:58.685Z,27.66
2022-08-25T17:19:53.367Z,27.48
2022-08-25T17:22:44.241Z,27.34
2022-08-25T17:25:34.979Z,27.19
2022-08-25T17:28:23.107Z,27.05
2022-08-25T17:31:17.112Z,26.88
2022-08-25T17:34:05.424Z,26.76
2022-08-25T17:36:55.383Z,26.58
2022-08-25T17:39:44.275Z,26.38
2022-08-25T17:42:35.449Z,26.18
2022-08-25T17:45:27.660Z,26.04
2022-08-25T17:48:16.092Z,25.90
2022-08-25T17:51:07.365Z,25.76
2022-08-25T17:53:55.794Z,25.57
2022-08-25T17:56:43.997Z,25.45
2022-08-25T17:59:32.505Z,25.30
2022-08-25T18:02:23.637Z,25.11
2022-08-25T18:05:52.825Z,24.87
2022-08-25T18:08:42.997Z,24.68
2022-08-25T18:11:30.481Z,24.53
2022-08-25T18:14:23.299Z,24.45
2022-08-25T18:17:13.232Z,24.40
2022-08-25T18:20:12.012Z,24.30
2022-08-25T18:23:13.494Z,24.12
2022-08-25T18:26:25.510Z,23.93
2022-08-25T18:29:33.682Z,23.74
2022-08-25T18:32:21.783Z,23.64
2022-08-25T18:35:35.060Z,23.58
2022-08-25T18:38:41.982Z,23.47
2022-08-25T18:42:03.705Z,23.29
2022-08-25T18:44:55.214Z,23.04
2022-08-25T18:47:48.263Z,22.89
2022-08-25T18:50:54.353Z,22.77
2022-08-25T18:54:03.799Z,22.75
2022-08-25T18:57:01.359Z,22.70
2022-08-25T18:59:49.289Z,22.67
2022-08-25T19:02:46.980Z,22.60
2022-08-25T19:05:42.844Z,22.52
2022-08-25T19:08:33.763Z,22.37
2022-08-25T19:11:42.040Z,22.21
2022-08-25T19:14:53.989Z,22.04
2022-08-25T19:18:26.152Z,21.92
2022-08-25T19:21:48.333Z,21.82
2022-08-25T19:25:26.001Z,21.72
2022-08-25T19:29:09.037Z,21.63
2022-08-25T19:32:25.669Z,21.57
2022-08-25T19:36:09.798Z,21.52
2022-08-25T19:39:16.374Z,21.45
2022-08-25T19:42:38.170Z,21.42
2022-08-25T19:45:55.722Z,21.37
2022-08-25T19:49:19.947Z,21.24
2022-08-25T19:52:48.025Z,21.18
2022-08-25T19:56:08.486Z,21.04
2022-08-25T19:59:42.956Z,20.91
2022-08-25T20:03:00.607Z,20.85
2022-08-25T20:06:31.773Z,20.82
2022-08-25T20:10:01.554Z,20.74
2022-08-25T20:13:32.665Z,20.67
2022-08-25T20:17:23.586Z,20.60
2022-08-25T20:20:57.056Z,20.49
2022-08-25T20:24:33.002Z,20.35
2022-08-25T20:28:03.675Z,20.27
2022-08-25T20:31:34.491Z,20.19
2022-08-25T20:35:05.646Z,20.14
2022-08-25T20:38:40.484Z,20.07
2022-08-25T20:42:11.630Z,20.00
2022-08-25T20:45:42.545Z,19.87
2022-08-25T20:49:14.640Z,19.84
2022-08-25T20:52:35.471Z,19.76
2022-08-25T20:56:06.599Z,19.68
2022-08-25T20:59:38.477Z,19.64
2022-08-25T21:03:08.686Z,19.57
2022-08-25T21:06:46.498Z,19.54
2022-08-25T21:10:17.640Z,19.43
2022-08-25T21:13:53.465Z,19.47
2022-08-25T21:17:24.601Z,19.45
2022-08-25T21:20:55.444Z,19.36
2022-08-25T21:24:35.954Z,19.31
2022-08-25T21:28:13.512Z,19.24
2022-08-25T21:31:48.628Z,19.16
2022-08-25T21:35:34.476Z,19.07
2022-08-25T21:39:05.597Z,18.98
2022-08-25T21:42:36.457Z,18.91
2022-08-25T21:46:12.646Z,18.88
2022-08-25T21:49:47.483Z,18.86
2022-08-25T21:53:19.623Z,18.80
2022-08-25T21:56:50.476Z,18.76
2022-08-25T22:00:21.629Z,18.75
2022-08-25T22:03:52.473Z,18.69
2022-08-25T22:07:24.644Z,18.69
2022-08-25T22:10:56.501Z,18.64
2022-08-25T22:14:27.587Z,18.53
2022-08-25T22:18:00.466Z,18.44
2022-08-25T22:21:33.722Z,18.37
2022-08-25T22:25:04.474Z,18.33
2022-08-25T22:28:38.725Z,18.30
2022-08-25T22:32:15.482Z,18.33
2022-08-25T22:35:46.645Z,18.31
2022-08-25T22:39:18.435Z,18.29
2022-08-25T22:42:54.588Z,18.21
2022-08-25T22:46:29.448Z,18.18
2022-08-25T22:50:01.641Z,18.17
2022-08-25T22:53:32.419Z,18.17
2022-08-25T22:57:06.646Z,18.10
2022-08-25T23:00:41.443Z,18.01
2022-08-25T23:04:19.157Z,17.93
2022-08-25T23:07:49.441Z,17.92
2022-08-25T23:11:19.593Z,17.91
2022-08-25T23:14:50.511Z,17.89
2022-08-25T23:18:22.610Z,17.87
2022-08-25T23:22:05.478Z,17.84
2022-08-25T23:25:36.585Z,17.82
2022-08-25T23:29:07.434Z,17.76
2022-08-25T23:32:48.756Z,17.68
2022-08-25T23:36:28.436Z,17.66
2022-08-25T23:40:01.689Z,17.61
2022-08-25T23:43:31.451Z,17.56
2022-08-25T23:47:02.621Z,17.48
2022-08-25T23:50:36.422Z,17.41
2022-08-25T23:54:06.569Z,17.35
2022-08-25T23:57:37.420Z,17.33
